< < Back
Terminal Aerodrome Forecast


Current Version              Previous Versions:   1  2  3  4  5  6  7  8  9  

Terminal Aerodrome Forecast

154
FTUS44 KHUN 231120
TAFHSV
TAF
KHSV 231120Z 2312/2412 VRB03KT P6SM SCT060
     FM231500 19005KT P6SM VCSH SCT050
     FM231800 20005KT P6SM VCTS BKN050CB
     FM240100 VRB03KT P6SM BKN250=

Latest METAR

814
SAUS80 KWBC 231700 RRB
MTRHSV
METAR KHSV 231653Z 20007KT 10SM FEW042 SCT250 33/22 A3001 RMK AO2 SLP154
T03330217 $


USA.gov is the U.S. government's official web portal to all federal, state and local government web resources and services.